Bowring, Oklahoma
Current Conditions -  °F | °C
As of 10:53 AM on Thursday 30 Oct 2014 (Local Time) from KBVO Reporting Station
Clear Clear  
Wind Chill: 17°   Ceiling: Unl
Heat Index: 17°   Visibility: 10mi
Dew Point:   Wind: 10mph
Humidity: 54%   Direction: 260°W
Pressure: 30.1"   Gusts: 21mph
Location:  36.88°N, 96.12°W
Report Text: KBVO 301553Z AUTO 26009G18KT 220V290 10SM CLR 17/08 A3010 RMK AO2 SLP189 T01720078
Loading
Personal Weather Stations






























Interactive Weather Map
Tropical Storm Tracking
New forecast layout! Learn more

10-Day Weather Forecast

Advertisements
Track Severe Weather on mobile